Time;durP1;ratioP1;P1;durP2;ratioP2;P2;SDS_P1;SDS_P2;PMS_P1;PMS_P2;Temp;Humidity;BMP_temperature;BMP_pressure;BME280_temperature;BME280_humidity;BME280_pressure;Samples;Min_cycle;Max_cycle;Signal;HPM_P1;HPM_P2
2023/02/07 00:01:44;;;;;;;0.00;0.00;;;;;;;0.30;77.94;102553.19;4932805;28;20435;-76
2023/02/07 00:04:14;;;;;;;0.00;0.00;;;;;;;0.34;78.24;102562.69;4954531;28;20418;-77
2023/02/07 00:06:40;;;;;;;0.10;0.10;;;;;;;0.27;78.04;102556.19;4928171;28;20140;-77
2023/02/07 00:09:07;;;;;;;0.00;0.00;;;;;;;0.30;78.23;102566.66;4936618;28;20744;-77
2023/02/07 00:11:50;;;;;;;0.00;0.00;;;;;;;0.27;78.19;102556.19;4938144;28;20504;-76
2023/02/07 00:14:23;;;;;;;0.00;0.00;;;;;;;0.42;78.08;102581.63;4924362;28;20046;-77
2023/02/07 00:16:49;;;;;;;0.00;0.00;;;;;;;0.34;77.69;102568.06;4933489;28;20241;-77
2023/02/07 00:19:14;;;;;;;0.00;0.00;;;;;;;0.29;77.91;102546.97;4952721;28;20126;-74
2023/02/07 00:21:39;;;;;;;0.10;0.10;;;;;;;0.21;78.36;102524.47;4932261;29;20042;-78
2023/02/07 00:24:06;;;;;;;0.10;0.10;;;;;;;0.34;77.96;102552.75;4938211;28;20062;-76
2023/02/07 00:26:39;;;;;;;0.00;0.00;;;;;;;0.31;78.29;102546.84;4924355;29;20031;-77
2023/02/07 00:29:05;;;;;;;0.10;0.10;;;;;;;0.25;78.19;102539.31;4925123;29;20023;-77
2023/02/07 00:31:35;;;;;;;0.00;0.00;;;;;;;0.34;78.07;102552.75;4952864;28;20504;-77
2023/02/07 00:34:13;;;;;;;0.00;0.00;;;;;;;0.16;78.60;102528.47;4935127;29;20543;-76
2023/02/07 00:36:47;;;;;;;0.00;0.00;;;;;;;0.14;78.51;102526.91;4933591;28;20090;-77
2023/02/07 00:39:17;;;;;;;0.00;0.00;;;;;;;0.07;78.77;102518.53;4920813;29;20370;-76
2023/02/07 00:41:46;;;;;;;0.00;0.00;;;;;;;0.19;78.45;102543.47;4935605;28;20434;-75
2023/02/07 00:44:20;;;;;;;0.00;0.00;;;;;;;0.15;79.75;102537.50;4952268;28;20027;-77
2023/02/07 00:46:53;;;;;;;0.10;0.10;;;;;;;0.14;79.75;102530.41;4919005;29;20144;-76
2023/02/07 00:49:26;;;;;;;0.00;0.00;;;;;;;0.02;79.93;102509.25;4924722;29;20038;-77
2023/02/07 00:51:51;;;;;;;0.00;0.00;;;;;;;0.11;79.70;102527.19;4935256;28;20381;-77
2023/02/07 00:54:21;;;;;;;0.00;0.00;;;;;;;0.09;80.45;102521.97;4937102;29;20020;-79
2023/02/07 00:56:47;;;;;;;0.00;0.00;;;;;;;0.01;80.83;102508.38;4917355;28;21649;-78
2023/02/07 00:59:15;;;;;;;0.10;0.10;;;;;;;0.03;80.27;102517.16;4929836;29;20087;-77
2023/02/07 01:01:40;;;;;;;0.00;0.00;;;;;;;0.08;80.79;102525.63;4939469;28;20043;-77
2023/02/07 01:04:06;;;;;;;0.00;0.00;;;;;;;-0.06;81.24;102512.63;4944468;28;20089;-77
2023/02/07 01:06:50;;;;;;;0.00;0.00;;;;;;;0.03;81.41;102548.56;4932367;29;20031;-77
2023/02/07 01:09:23;;;;;;;;;;;;;;;-0.06;81.04;102534.16;4934143;28;20422;-77
2023/02/07 01:11:56;;;;;;;0.10;0.10;;;;;;;-0.30;81.20;102516.63;4934729;28;19914;-77
2023/02/07 01:14:22;;;;;;;0.10;0.10;;;;;;;-0.32;81.22;102524.00;4900462;28;20070;-77
2023/02/07 01:16:48;;;;;;;0.00;0.00;;;;;;;-0.45;81.11;102518.03;4939782;29;20053;-77
2023/02/07 01:19:14;;;;;;;0.00;0.00;;;;;;;-0.49;81.80;102527.41;4935487;28;20035;-78
2023/02/07 01:21:43;;;;;;;0.00;0.00;;;;;;;-0.62;81.53;102533.03;4934755;29;20027;-77
2023/02/07 01:24:11;;;;;;;0.10;0.10;;;;;;;-0.62;81.19;102544.63;4927287;28;20050;-76
2023/02/07 01:26:37;;;;;;;0.00;0.00;;;;;;;-0.84;81.04;102528.78;4938966;29;20075;-78
2023/02/07 01:29:04;;;;;;;0.10;0.10;;;;;;;-0.80;82.04;102546.34;4939336;29;20038;-76
2023/02/07 01:31:29;;;;;;;0.10;0.10;;;;;;;-1.02;81.77;102509.78;4934559;28;20035;-74
2023/02/07 01:33:57;;;;;;;0.00;0.00;;;;;;;-0.88;81.86;102544.31;4922473;29;20030;-76
2023/02/07 01:36:27;;;;;;;0.10;0.10;;;;;;;-1.02;80.85;102520.53;4932199;28;20035;-77
2023/02/07 01:39:02;;;;;;;0.08;0.08;;;;;;;-0.99;81.81;102534.53;4939695;29;20117;-77
2023/02/07 01:41:28;;;;;;;0.10;0.10;;;;;;;-1.12;81.74;102523.22;4948763;28;20023;-76
2023/02/07 01:44:35;;;;;;;;;;;;;;;;;;;;;
2023/02/07 01:47:22;;;;;;;0.10;0.10;;;;;;;-1.17;81.16;102512.03;4956725;28;20106;-77
2023/02/07 01:49:53;;;;;;;0.00;0.00;;;;;;;-1.15;81.92;102526.19;4927423;28;20033;-77
2023/02/07 01:52:25;;;;;;;0.00;0.00;;;;;;;-1.03;81.48;102541.19;4956180;28;20034;-75
2023/02/07 01:55:19;;;;;;;0.00;0.00;;;;;;;-1.03;82.06;102535.81;4943831;28;20100;-76
2023/02/07 01:57:46;;;;;;;0.00;0.00;;;;;;;-1.09;81.00;102525.63;4957286;28;20063;-76
2023/02/07 02:00:15;;;;;;;0.00;0.00;;;;;;;-1.14;81.34;102517.09;4944047;28;20051;-76
2023/02/07 02:02:41;;;;;;;0.10;0.10;;;;;;;-1.14;81.37;102523.34;4945272;29;20367;-77
2023/02/07 02:05:08;;;;;;;0.00;0.00;;;;;;;-1.15;81.26;102515.44;4907571;28;20019;-76
2023/02/07 02:07:34;;;;;;;0.00;0.00;;;;;;;-1.09;81.98;102525.63;4944142;29;20039;-76
2023/02/07 02:10:05;;;;;;;0.00;0.00;;;;;;;-1.12;81.33;102520.53;4942076;28;20126;-75
2023/02/07 02:12:32;;;;;;;0.00;0.00;;;;;;;-1.06;81.06;102541.44;4942131;29;20015;-76
2023/02/07 02:15:19;;;;;;;0.00;0.00;;;;;;;-1.15;81.64;102523.50;4947444;29;20031;-76
2023/02/07 02:18:11;;;;;;;0.00;0.00;;;;;;;-1.07;82.01;102545.13;4928049;29;20023;-76
2023/02/07 02:21:01;;;;;;;0.08;0.08;;;;;;;-1.09;82.30;102531.00;4909162;29;20046;-75
2023/02/07 02:24:04;;;;;;;0.00;0.00;;;;;;;-1.10;81.62;102535.50;4938511;28;20019;-77
2023/02/07 02:27:08;;;;;;;0.10;0.10;;;;;;;-1.12;81.94;102536.63;4962542;28;20125;-74
2023/02/07 02:30:21;;;;;;;;;;;;;;;;;;;;;
2023/02/07 02:32:50;;;;;;;0.00;0.00;;;;;;;-1.30;82.63;102531.91;4955487;28;20138;-77
2023/02/07 02:35:27;;;;;;;0.00;0.00;;;;;;;-1.46;81.90;102508.25;4940771;29;20037;-75
2023/02/07 02:38:20;;;;;;;0.03;0.03;;;;;;;-1.29;82.67;102530.91;4937353;28;20445;-77
2023/02/07 02:41:00;;;;;;;0.03;0.03;;;;;;;-1.41;82.01;102518.59;4957618;28;20027;-75
2023/02/07 02:43:50;;;;;;;0.10;0.10;;;;;;;-1.35;82.68;102542.19;4937618;28;20066;-76
2023/02/07 02:46:26;;;;;;;0.00;0.00;;;;;;;-1.45;83.06;102514.47;4936146;28;20050;-76
2023/02/07 02:48:53;;;;;;;0.00;0.00;;;;;;;-1.56;82.45;102495.78;4956693;28;20031;-76
2023/02/07 02:51:21;;;;;;;0.00;0.00;;;;;;;-1.53;82.26;102495.50;4937983;28;20023;-77
2023/02/07 02:53:55;;;;;;;0.00;0.00;;;;;;;-1.37;82.28;102532.56;4940673;29;20031;-76
2023/02/07 02:56:38;;;;;;;0.10;0.10;;;;;;;-1.49;82.28;102519.28;4960202;28;20031;-76
2023/02/07 02:59:21;;;;;;;0.00;0.00;;;;;;;-1.46;83.22;102523.50;4937408;29;20114;-73
2023/02/07 03:02:30;;;;;;;0.00;0.00;;;;;;;-1.66;82.70;102493.91;4937688;28;21696;-76
2023/02/07 03:05:11;;;;;;;0.00;0.00;;;;;;;-1.47;83.26;102516.44;4956729;28;20091;-76
2023/02/07 03:07:53;;;;;;;0.00;0.00;;;;;;;-1.55;82.98;102503.69;4960634;28;20031;-77
2023/02/07 03:10:24;;;;;;;0.10;0.10;;;;;;;-1.60;83.03;102500.56;4941983;28;20031;-76
2023/02/07 03:13:13;;;;;;;0.10;0.10;;;;;;;-1.48;82.51;102514.75;4942415;29;20035;-76
2023/02/07 03:15:54;;;;;;;0.00;0.00;;;;;;;-1.63;82.78;102485.59;4937185;29;20031;-77
2023/02/07 03:18:40;;;;;;;0.00;0.00;;;;;;;-1.51;82.62;102505.13;4942184;29;20070;-76
2023/02/07 03:21:25;;;;;;;0.00;0.00;;;;;;;-1.54;83.37;102504.56;4940034;29;20393;-75
2023/02/07 03:23:54;;;;;;;0.00;0.00;;;;;;;-1.69;83.46;102485.28;4935820;28;20031;-78
2023/02/07 03:26:22;;;;;;;0.00;0.00;;;;;;;-1.72;83.05;102489.09;4937403;29;20031;-75
2023/02/07 03:28:52;;;;;;;0.00;0.00;;;;;;;-1.71;83.87;102498.81;4925334;28;20035;-74
2023/02/07 03:31:20;;;;;;;0.10;0.10;;;;;;;-1.91;83.96;102475.56;4939172;29;20106;-73
2023/02/07 03:34:00;;;;;;;0.00;0.00;;;;;;;-2.05;84.10;102464.22;4938118;29;20082;-77
2023/02/07 03:36:30;;;;;;;0.00;0.00;;;;;;;-1.82;84.29;102502.44;4946870;28;20019;-76
2023/02/07 03:39:01;;;;;;;0.00;0.00;;;;;;;-1.84;83.91;102492.81;4954560;28;20020;-76
2023/02/07 03:41:33;;;;;;;0.00;0.00;;;;;;;-1.98;83.77;102476.09;4958720;28;20030;-75
2023/02/07 03:44:05;;;;;;;0.00;0.00;;;;;;;-1.81;84.75;102497.91;4942012;29;20046;-75
2023/02/07 03:46:37;;;;;;;0.00;0.00;;;;;;;-1.91;84.67;102478.25;4911153;29;20042;-76
2023/02/07 03:49:06;;;;;;;0.00;0.00;;;;;;;-1.88;84.37;102478.84;4931797;29;20482;-75
2023/02/07 03:51:32;;;;;;;0.00;0.00;;;;;;;-1.90;84.18;102483.47;4939671;29;20122;-75
2023/02/07 03:53:58;;;;;;;0.00;0.00;;;;;;;-1.80;84.57;102494.25;4945043;29;20039;-76
2023/02/07 03:56:23;;;;;;;0.00;0.00;;;;;;;-1.96;84.81;102474.16;4906616;28;20031;-74
2023/02/07 03:58:49;;;;;;;0.10;0.10;;;;;;;-1.85;84.78;102491.16;4932164;29;20028;-75
2023/02/07 04:01:14;;;;;;;0.00;0.00;;;;;;;-1.98;83.67;102476.09;4948858;28;20047;-76
2023/02/07 04:03:40;;;;;;;0.10;0.10;;;;;;;-2.03;84.66;102478.34;4940067;29;20035;-77
2023/02/07 04:06:22;;;;;;;0.10;0.10;;;;;;;-1.98;83.99;102502.91;4939855;29;20056;-77
2023/02/07 04:08:47;;;;;;;0.00;0.00;;;;;;;-2.06;84.44;102494.69;4921960;29;20035;-74
2023/02/07 04:11:13;;;;;;;0.00;0.00;;;;;;;-2.05;84.89;102496.38;4933012;28;20346;-75
2023/02/07 04:13:38;;;;;;;0.00;0.00;;;;;;;-1.91;84.51;102523.84;4931995;28;20027;-75
2023/02/07 04:16:07;;;;;;;0.10;0.10;;;;;;;-1.97;83.83;102523.41;4937078;29;20035;-74
2023/02/07 04:18:33;;;;;;;0.03;0.03;;;;;;;-2.07;84.61;102519.81;4933325;28;20039;-77
2023/02/07 04:21:02;;;;;;;0.00;0.00;;;;;;;-2.11;84.05;102515.69;4925471;29;20035;-75
2023/02/07 04:23:31;;;;;;;0.10;0.10;;;;;;;-2.22;85.00;102507.69;4937299;28;20031;-74
2023/02/07 04:25:56;;;;;;;0.00;0.00;;;;;;;-2.15;84.36;102508.88;4935678;28;20022;-74
2023/02/07 04:28:22;;;;;;;0.00;0.00;;;;;;;-2.22;84.56;102505.03;4923750;28;20062;-76
2023/02/07 04:30:47;;;;;;;0.00;0.00;;;;;;;-2.22;84.64;102521.09;4952601;28;20031;-76
2023/02/07 04:33:13;;;;;;;0.00;0.00;;;;;;;-2.22;84.98;102531.81;4936334;29;20122;-76
2023/02/07 04:35:38;;;;;;;0.10;0.10;;;;;;;-2.25;84.78;102529.41;4931789;28;20031;-76
2023/02/07 04:38:04;;;;;;;0.10;0.10;;;;;;;-2.35;84.86;102519.47;4924230;29;20027;-75
2023/02/07 04:40:34;;;;;;;0.10;0.10;;;;;;;-2.46;84.26;102508.81;4952343;28;20019;-76
2023/02/07 04:43:02;;;;;;;0.10;0.10;;;;;;;-2.34;84.78;102537.22;4939077;29;20042;-76
2023/02/07 04:45:29;;;;;;;0.05;0.05;;;;;;;-2.46;84.89;102519.53;4935598;28;20122;-75
2023/02/07 04:47:57;;;;;;;0.10;0.10;;;;;;;-2.48;85.18;102526.84;4920659;29;20059;-75
2023/02/07 04:50:23;;;;;;;0.10;0.10;;;;;;;-2.47;84.92;102523.16;4937519;29;20038;-76
2023/02/07 04:52:50;;;;;;;0.10;0.10;;;;;;;-2.55;84.62;102506.91;4918936;28;20030;-75
2023/02/07 04:55:16;;;;;;;0.00;0.00;;;;;;;-2.42;85.37;102526.31;4921149;29;20150;-76
2023/02/07 04:57:48;;;;;;;0.00;0.00;;;;;;;-2.46;84.58;102522.19;4919725;28;20039;-76
2023/02/07 05:00:14;;;;;;;0.00;0.00;;;;;;;-2.41;84.47;102528.03;4917310;28;20502;-76
2023/02/07 05:02:40;;;;;;;0.00;0.00;;;;;;;-2.43;85.19;102524.63;4936547;28;20059;-76
2023/02/07 05:05:06;;;;;;;0.00;0.00;;;;;;;-2.57;84.65;102490.09;4957052;28;20046;-76
2023/02/07 05:07:32;;;;;;;0.00;0.00;;;;;;;-2.51;84.33;102505.63;4955554;28;20148;-76
2023/02/07 05:09:57;;;;;;;0.10;0.10;;;;;;;-2.35;85.18;102532.88;4937155;29;20137;-75
2023/02/07 05:12:23;;;;;;;0.10;0.10;;;;;;;-2.39;84.99;102530.59;4954501;28;20027;-75
2023/02/07 05:14:48;;;;;;;0.00;0.00;;;;;;;-2.45;85.45;102515.88;4927190;29;20032;-76
2023/02/07 05:17:16;;;;;;;0.10;0.10;;;;;;;-2.35;85.53;102530.19;4949221;28;20031;-77
2023/02/07 05:19:49;;;;;;;0.00;0.00;;;;;;;-2.51;84.92;102501.16;4935173;29;20027;-76
2023/02/07 05:22:15;;;;;;;0.00;0.00;;;;;;;-2.53;84.96;102496.91;4952894;28;20027;-75
2023/02/07 05:24:43;;;;;;;0.00;0.00;;;;;;;-2.55;85.92;102507.75;4937004;29;20031;-77
2023/02/07 05:27:09;;;;;;;0.00;0.00;;;;;;;-2.58;85.56;102509.84;4936691;28;20102;-76
2023/02/07 05:29:34;;;;;;;0.00;0.00;;;;;;;-2.58;85.45;102509.84;4937204;29;20789;-74
2023/02/07 05:34:44;;;;;;;0.00;0.00;;;;;;;-2.61;85.91;102510.06;4937226;28;20066;-76
2023/02/07 05:37:09;;;;;;;0.10;0.10;;;;;;;-2.54;86.11;102538.06;4916251;28;20082;-75
2023/02/07 05:39:35;;;;;;;0.10;0.10;;;;;;;-2.71;85.47;102516.19;4935351;29;20121;-76
2023/02/07 05:42:00;;;;;;;0.10;0.10;;;;;;;-2.78;85.63;102503.47;4936627;29;20023;-77
2023/02/07 05:44:27;;;;;;;0.00;0.00;;;;;;;-2.83;86.05;102511.88;4928305;29;20020;-76
2023/02/07 05:46:53;;;;;;;0.00;0.00;;;;;;;-2.78;85.77;102531.06;4928012;29;20042;-77
2023/02/07 05:49:20;;;;;;;0.10;0.10;;;;;;;-2.64;85.87;102554.91;4933298;28;20023;-75
2023/02/07 05:51:56;;;;;;;;;;;;;;;;;;;;;
2023/02/07 05:54:22;;;;;;;0.00;0.00;;;;;;;-2.77;85.96;102527.44;4932467;28;20061;-77
2023/02/07 05:56:47;;;;;;;0.00;0.00;;;;;;;-2.81;86.50;102518.78;4922703;29;20059;-78
2023/02/07 05:59:13;;;;;;;0.00;0.00;;;;;;;-2.66;85.82;102540.78;4916432;28;20063;-76
2023/02/07 06:01:41;;;;;;;0.00;0.00;;;;;;;-2.71;86.50;102532.28;4955672;28;20050;-76
2023/02/07 06:04:14;;;;;;;0.00;0.00;;;;;;;-2.81;85.98;102516.09;4938116;29;20478;-75
2023/02/07 06:06:39;;;;;;;0.00;0.00;;;;;;;-2.68;86.69;102556.13;4937678;29;20035;-76
2023/02/07 06:09:05;;;;;;;0.00;0.00;;;;;;;-2.84;86.42;102531.59;4923181;29;20138;-76
2023/02/07 06:11:30;;;;;;;0.00;0.00;;;;;;;-2.87;86.40;102537.19;4932862;28;20038;-76
2023/02/07 06:13:58;;;;;;;0.10;0.10;;;;;;;-2.83;86.55;102539.50;4936765;28;20039;-77
2023/02/07 06:16:24;;;;;;;0.10;0.10;;;;;;;-2.72;86.98;102556.50;4954331;28;20031;-74
2023/02/07 06:18:52;;;;;;;0.10;0.10;;;;;;;-2.87;86.93;102537.19;4930178;28;20134;-74
2023/02/07 06:21:17;;;;;;;0.10;0.10;;;;;;;-2.79;86.99;102552.63;4956939;28;20462;-74
2023/02/07 06:23:50;;;;;;;0.10;0.10;;;;;;;-2.85;87.24;102551.31;4934824;28;20038;-74
2023/02/07 06:26:23;;;;;;;0.00;0.00;;;;;;;-2.97;87.05;102537.09;4913963;29;20107;-77
2023/02/07 06:28:48;;;;;;;0.00;0.00;;;;;;;-3.09;87.45;102525.56;4933240;28;20026;-76
2023/02/07 06:31:14;;;;;;;0.10;0.10;;;;;;;-3.04;87.20;102547.47;4955747;28;20058;-76
2023/02/07 06:33:42;;;;;;;0.00;0.00;;;;;;;-3.17;87.81;102541.38;4921338;28;20050;-77
2023/02/07 06:36:08;;;;;;;0.00;0.00;;;;;;;-3.11;88.22;102546.25;4939894;29;20086;-76
2023/02/07 06:38:36;;;;;;;0.00;0.00;;;;;;;-3.26;87.99;102532.25;4939837;29;20023;-76
2023/02/07 06:41:01;;;;;;;0.00;0.00;;;;;;;-3.31;88.43;102517.53;4924489;29;20029;-75
2023/02/07 06:43:30;;;;;;;0.10;0.10;;;;;;;-3.26;88.14;102515.38;4926299;28;20103;-75
2023/02/07 06:45:57;;;;;;;0.10;0.10;;;;;;;-3.19;88.15;102516.56;4957643;28;20027;-76
2023/02/07 06:48:26;;;;;;;0.08;0.08;;;;;;;-3.01;89.10;102531.16;4960408;28;20038;-77
2023/02/07 06:50:51;;;;;;;0.00;0.00;;;;;;;-2.97;89.08;102521.03;4936116;28;20828;-77
2023/02/07 06:53:27;;;;;;;;;;;;;;;;;;;;;
2023/02/07 06:55:52;;;;;;;0.00;0.00;;;;;;;-2.94;89.38;102517.25;4953845;28;20098;-75
2023/02/07 06:58:18;;;;;;;0.00;0.00;;;;;;;-2.84;88.96;102520.88;4907235;29;20059;-76
2023/02/07 07:00:43;;;;;;;0.00;0.00;;;;;;;-2.89;89.33;102512.34;4942478;28;20494;-75
2023/02/07 07:03:13;;;;;;;0.00;0.00;;;;;;;-2.77;89.63;102522.06;4908818;29;20426;-76
2023/02/07 07:05:39;;;;;;;0.10;0.10;;;;;;;-2.82;90.15;102518.91;4958913;28;20031;-77
2023/02/07 07:08:04;;;;;;;0.00;0.00;;;;;;;-2.77;90.48;102530.09;4956769;28;20023;-76
2023/02/07 07:10:51;;;;;;;0.00;0.00;;;;;;;-2.66;90.48;102518.50;4942433;29;20031;-79
2023/02/07 07:13:17;;;;;;;0.10;0.10;;;;;;;-2.65;90.66;102507.66;4931868;28;20497;-78
2023/02/07 07:15:45;;;;;;;0.00;0.00;;;;;;;-2.56;90.57;102523.94;4930264;29;20046;-77
2023/02/07 07:18:23;;;;;;;0.10;0.10;;;;;;;-2.60;91.46;102511.78;4918921;29;20043;-78
2023/02/07 07:20:53;;;;;;;0.10;0.10;;;;;;;-2.55;91.57;102514.94;4928179;29;20130;-77
2023/02/07 07:23:22;;;;;;;0.10;0.10;;;;;;;-2.52;91.89;102530.75;4932873;28;20050;-79
2023/02/07 07:25:53;;;;;;;0.10;0.10;;;;;;;-2.60;92.32;102512.63;4934535;29;20020;-79
2023/02/07 07:28:20;;;;;;;0.10;0.10;;;;;;;-2.60;92.04;102528.69;4927157;29;20110;-78
2023/02/07 07:30:48;;;;;;;0.10;0.10;;;;;;;-2.67;92.65;102523.00;4928268;28;20166;-81
2023/02/07 07:33:23;;;;;;;0.00;0.00;;;;;;;-2.73;92.60;102526.22;4953007;28;20023;-78
2023/02/07 07:36:01;;;;;;;0.00;0.00;;;;;;;-2.64;93.61;102552.22;4915897;28;20039;-79
2023/02/07 07:38:27;;;;;;;0.00;0.00;;;;;;;-2.71;93.45;102537.63;4935672;29;20122;-78
2023/02/07 07:40:52;;;;;;;0.00;0.00;;;;;;;-2.72;93.28;102543.13;4899477;29;20470;-81
2023/02/07 07:43:18;;;;;;;0.10;0.10;;;;;;;-2.70;94.11;102554.53;4903606;29;20038;-79
2023/02/07 07:45:51;;;;;;;0.10;0.10;;;;;;;-2.71;93.65;102556.38;4927973;28;20179;-79
2023/02/07 07:48:17;;;;;;;0.10;0.10;;;;;;;-2.86;94.15;102545.09;4947763;28;20023;-78
2023/02/07 07:50:42;;;;;;;0.08;0.08;;;;;;;-2.92;93.84;102544.75;4897729;28;20027;-78
2023/02/07 07:53:08;;;;;;;0.03;0.03;;;;;;;-2.89;94.49;102561.44;4913624;29;20033;-77
2023/02/07 07:55:38;;;;;;;0.00;0.00;;;;;;;-3.08;94.66;102535.28;4917933;29;20039;-78
2023/02/07 07:58:04;;;;;;;0.03;0.03;;;;;;;-2.99;94.35;102564.00;4901115;28;20027;-78
2023/02/07 08:00:31;;;;;;;0.00;0.00;;;;;;;-2.92;94.38;102585.78;4927341;28;20055;-77
2023/02/07 08:03:19;;;;;;;0.00;0.00;;;;;;;-2.96;94.16;102570.94;4927093;29;20123;-77
2023/02/07 08:05:46;;;;;;;0.00;0.00;;;;;;;-2.83;93.51;102586.84;4932621;29;20036;-77
2023/02/07 08:08:22;;;;;;;0.00;0.00;;;;;;;-2.82;94.08;102591.22;4923165;29;20016;-79
2023/02/07 08:10:51;;;;;;;0.10;0.10;;;;;;;-2.71;93.83;102617.97;4933921;29;20049;-76
2023/02/07 08:13:17;;;;;;;0.00;0.00;;;;;;;-2.68;93.61;102606.19;4912247;28;21402;-78
2023/02/07 08:15:42;;;;;;;0.00;0.00;;;;;;;-2.57;93.47;102608.84;4935526;29;20027;-77
2023/02/07 08:18:08;;;;;;;0.00;0.00;;;;;;;-2.41;93.04;102621.81;4920383;29;20090;-77
2023/02/07 08:20:34;;;;;;;0.00;0.00;;;;;;;-2.33;92.44;102621.19;4917076;29;20438;-77
2023/02/07 08:22:59;;;;;;;0.00;0.00;;;;;;;-2.23;92.11;102610.53;4919288;29;20039;-78
2023/02/07 08:25:30;;;;;;;0.00;0.00;;;;;;;-2.15;92.49;102603.56;4929591;28;20019;-78
2023/02/07 08:27:56;;;;;;;0.10;0.10;;;;;;;-1.89;91.97;102623.81;4917125;28;20024;-76
2023/02/07 08:30:21;;;;;;;0.00;0.00;;;;;;;-1.82;92.05;102630.34;4929792;28;20401;-77
2023/02/07 08:32:47;;;;;;;0.00;0.00;;;;;;;-1.80;91.01;102617.66;4933634;29;20043;-77
2023/02/07 08:35:12;;;;;;;0.00;0.00;;;;;;;-1.70;91.40;102629.28;4914783;29;20035;-77
2023/02/07 08:37:38;;;;;;;0.10;0.10;;;;;;;-1.67;91.18;102615.63;4904622;29;20042;-76
2023/02/07 08:40:05;;;;;;;0.10;0.10;;;;;;;-1.49;90.89;102615.03;4933473;29;20027;-77
2023/02/07 08:42:33;;;;;;;0.10;0.10;;;;;;;-1.45;90.96;102603.03;4895123;28;20501;-78
2023/02/07 08:44:58;;;;;;;0.10;0.10;;;;;;;-1.24;90.89;102608.38;4934365;29;20090;-77
2023/02/07 08:47:24;;;;;;;0.00;0.00;;;;;;;-1.04;90.59;102622.72;4903365;28;20027;-78
2023/02/07 08:49:49;;;;;;;0.00;0.00;;;;;;;-0.92;89.93;102613.59;4912458;28;20632;-78
2023/02/07 08:52:15;;;;;;;0.05;0.05;;;;;;;-0.63;90.38;102618.19;4929364;28;20043;-77
2023/02/07 08:54:45;;;;;;;0.00;0.00;;;;;;;0.49;92.88;102615.06;4929864;29;20027;-78
2023/02/07 08:57:16;;;;;;;0.10;0.10;;;;;;;3.57;89.43;102595.69;4903448;29;20039;-77
2023/02/07 08:59:41;;;;;;;0.00;0.00;;;;;;;7.37;72.36;102619.66;4927265;28;20393;-77
2023/02/07 09:02:08;;;;;;;0.03;0.03;;;;;;;10.42;59.63;102589.09;4917153;29;20051;-76
2023/02/07 09:04:35;;;;;;;0.10;0.10;;;;;;;13.07;51.19;102608.72;4920905;28;20034;-77
2023/02/07 09:07:00;;;;;;;0.10;0.10;;;;;;;15.16;45.97;102616.19;4932492;29;20130;-77
2023/02/07 09:09:26;;;;;;;0.00;0.00;;;;;;;16.69;42.68;102616.44;4921933;28;20139;-77
2023/02/07 09:11:51;;;;;;;0.00;0.00;;;;;;;18.26;40.39;102622.38;4927552;28;20050;-77
2023/02/07 09:14:17;;;;;;;0.00;0.00;;;;;;;19.36;38.33;102618.03;4948687;28;20114;-77
2023/02/07 09:16:42;;;;;;;0.10;0.10;;;;;;;20.47;37.00;102627.91;4923406;28;20031;-77
2023/02/07 09:19:10;;;;;;;0.00;0.00;;;;;;;21.48;35.60;102609.47;4899930;29;20031;-78
2023/02/07 09:21:36;;;;;;;0.00;0.00;;;;;;;22.27;34.73;102609.47;4912367;28;20034;-78
2023/02/07 09:24:02;;;;;;;0.00;0.00;;;;;;;22.75;34.63;102601.19;4915386;28;20023;-77
2023/02/07 09:26:37;;;;;;;0.00;0.00;;;;;;;23.52;33.22;102589.06;4937649;29;20031;-78
2023/02/07 09:29:07;;;;;;;0.00;0.00;;;;;;;24.39;32.60;102588.75;4946843;28;20693;-78
2023/02/07 09:31:36;;;;;;;0.00;0.00;;;;;;;25.01;31.85;102598.75;4917443;29;20109;-76
2023/02/07 09:34:03;;;;;;;0.00;0.00;;;;;;;25.38;31.25;102596.88;4912100;29;20027;-76
2023/02/07 09:36:32;;;;;;;0.00;0.00;;;;;;;26.03;30.32;102606.78;4900965;29;20027;-76
2023/02/07 09:38:58;;;;;;;0.00;0.00;;;;;;;26.48;29.97;102606.72;4918355;28;20063;-78
2023/02/07 09:41:41;;;;;;;0.00;0.00;;;;;;;26.67;30.31;102618.88;4954269;28;20054;-78
2023/02/07 09:44:31;;;;;;;0.00;0.00;;;;;;;26.16;31.45;102613.47;4951300;28;20049;-77
2023/02/07 09:47:20;;;;;;;;;;;;;;;;;;;;;
2023/02/07 09:50:02;;;;;;;0.00;0.00;;;;;;;27.09;28.79;102610.94;4942578;28;20553;-77
2023/02/07 09:52:38;;;;;;;0.00;0.00;;;;;;;26.42;26.47;102624.03;4928854;28;20058;-78
2023/02/07 09:55:04;;;;;;;0.00;0.00;;;;;;;26.34;25.47;102613.56;4947362;28;20097;-78
2023/02/07 09:57:45;;;;;;;0.00;0.00;;;;;;;26.81;25.14;102616.81;4914982;28;20035;-77
2023/02/07 10:00:33;;;;;;;0.00;0.00;;;;;;;27.71;23.99;102617.47;4957586;28;20030;-77
2023/02/07 10:03:13;;;;;;;0.00;0.00;;;;;;;28.77;23.85;102614.13;4956245;28;20074;-76
2023/02/07 10:05:45;;;;;;;0.00;0.00;;;;;;;29.75;23.23;102613.97;4941235;28;20474;-76
2023/02/07 10:08:19;;;;;;;0.00;0.00;;;;;;;29.99;22.69;102595.50;4928317;29;20086;-77
2023/02/07 10:10:55;;;;;;;0.00;0.00;;;;;;;30.77;22.41;102613.56;4933831;29;20457;-76
2023/02/07 10:13:36;;;;;;;0.00;0.00;;;;;;;31.50;21.64;102613.84;4943888;28;20032;-77
2023/02/07 10:16:29;;;;;;;0.00;0.00;;;;;;;32.52;21.26;102621.13;4936308;29;20444;-76
2023/02/07 10:19:21;;;;;;;0.00;0.00;;;;;;;33.78;20.34;102621.25;4948481;28;20030;-78
2023/02/07 10:22:05;;;;;;;0.00;0.00;;;;;;;34.18;19.76;102614.28;4902419;28;20035;-76
2023/02/07 10:24:50;;;;;;;0.00;0.00;;;;;;;34.39;19.28;102607.38;4923911;29;20027;-76
2023/02/07 10:27:28;;;;;;;0.00;0.00;;;;;;;34.84;19.20;102591.50;4928836;29;20022;-77
2023/02/07 10:30:16;;;;;;;0.00;0.00;;;;;;;35.63;18.72;102612.53;4936210;28;20035;-77
2023/02/07 10:32:45;;;;;;;0.00;0.00;;;;;;;36.12;18.74;102609.84;4925534;29;20023;-77
2023/02/07 10:35:18;;;;;;;0.00;0.00;;;;;;;36.36;18.50;102607.63;4921082;29;20098;-78
2023/02/07 10:37:48;;;;;;;0.00;0.00;;;;;;;36.61;16.74;102610.69;4933699;29;20031;-76
2023/02/07 10:40:34;;;;;;;0.00;0.00;;;;;;;36.51;15.87;102603.72;4953055;28;20039;-78
2023/02/07 10:43:12;;;;;;;0.00;0.00;;;;;;;37.34;16.15;102616.50;4923775;29;20377;-78
2023/02/07 10:45:41;;;;;;;0.00;0.00;;;;;;;38.14;15.84;102608.19;4929982;28;20638;-77
2023/02/07 10:48:22;;;;;;;0.00;0.00;;;;;;;38.83;15.60;102606.16;4932472;29;20030;-78
2023/02/07 10:50:48;;;;;;;0.00;0.00;;;;;;;39.06;14.88;102602.84;4930479;28;20082;-77
2023/02/07 10:53:47;;;;;;;0.00;0.00;;;;;;;39.56;14.67;102608.44;4933593;29;20019;-78
2023/02/07 10:56:27;;;;;;;0.00;0.00;;;;;;;40.06;14.73;102613.06;4928817;28;21273;-78
2023/02/07 10:58:56;;;;;;;0.00;0.00;;;;;;;40.38;14.27;102611.16;4933256;29;20042;-78
2023/02/07 11:01:28;;;;;;;0.00;0.00;;;;;;;40.52;13.93;102598.78;4932829;28;20039;-79
2023/02/07 11:03:54;;;;;;;0.00;0.00;;;;;;;40.62;13.80;102604.41;4923206;29;20485;-79
2023/02/07 11:06:32;;;;;;;0.00;0.00;;;;;;;40.71;13.81;102595.31;4934778;29;20061;-78
2023/02/07 11:09:41;;;;;;;;;;;;;;;;;;;;;
2023/02/07 11:12:26;;;;;;;0.00;0.00;;;;;;;41.33;13.06;102598.34;4932089;28;20489;-78
2023/02/07 11:15:19;;;;;;;;;;;;;;;;;;;;;
2023/02/07 11:17:48;;;;;;;0.00;0.00;;;;;;;42.08;12.26;102584.97;4945922;28;20025;-78
2023/02/07 11:20:29;;;;;;;0.00;0.00;;;;;;;41.78;12.71;102575.19;4929360;28;20475;-77
2023/02/07 11:22:56;;;;;;;0.00;0.00;;;;;;;42.38;12.50;102577.50;4928055;29;20423;-77
2023/02/07 11:25:40;;;;;;;0.00;0.00;;;;;;;42.65;12.04;102593.88;4914980;28;20059;-77
2023/02/07 11:28:29;;;;;;;;;;;;;;;;;;;;;
2023/02/07 11:31:06;;;;;;;0.00;0.00;;;;;;;43.50;11.80;102592.59;4950190;28;20062;-77
2023/02/07 11:33:35;;;;;;;0.00;0.00;;;;;;;43.61;11.63;102603.88;4932675;29;20437;-77
2023/02/07 11:36:29;;;;;;;;;;;;;;;;;;;;;
2023/02/07 11:39:03;;;;;;;0.00;0.00;;;;;;;43.88;11.27;102604.50;4947534;28;20474;-79
2023/02/07 11:41:43;;;;;;;0.00;0.00;;;;;;;43.90;11.68;102599.06;4933598;29;20035;-79
2023/02/07 11:44:17;;;;;;;0.00;0.00;;;;;;;44.00;11.56;102594.31;4919144;28;20060;-77
2023/02/07 11:46:49;;;;;;;0.00;0.00;;;;;;;44.15;11.49;102586.09;4936381;29;20023;-78
2023/02/07 11:49:41;;;;;;;0.00;0.00;;;;;;;44.60;11.12;102599.78;4945569;28;20042;-79
2023/02/07 11:52:10;;;;;;;0.00;0.00;;;;;;;44.73;11.03;102581.72;4934457;29;20066;-79
2023/02/07 11:54:38;;;;;;;0.00;0.00;;;;;;;44.73;10.90;102585.44;4929212;29;20033;-78
2023/02/07 11:57:11;;;;;;;0.00;0.00;;;;;;;44.90;11.11;102594.81;4931828;29;20528;-78
2023/02/07 11:59:51;;;;;;;0.00;0.00;;;;;;;45.14;10.36;102589.63;4930026;29;20038;-79
2023/02/07 12:02:27;;;;;;;0.00;0.00;;;;;;;44.88;10.28;102579.25;4950966;28;20055;-79